createdAt,value
2018-08-08T00:00:31.216Z,26.20
2018-08-08T00:03:00.071Z,26.00
2018-08-08T00:05:29.193Z,26.00
2018-08-08T00:07:58.718Z,25.90
2018-08-08T00:10:27.518Z,25.70
2018-08-08T00:12:57.058Z,25.70
2018-08-08T00:15:25.860Z,25.70
2018-08-08T00:17:54.885Z,25.80
2018-08-08T00:20:23.661Z,26.00
2018-08-08T00:22:52.456Z,26.00
2018-08-08T00:25:22.109Z,26.00
2018-08-08T00:27:50.917Z,26.00
2018-08-08T00:30:19.700Z,26.00
2018-08-08T00:32:49.381Z,26.00
2018-08-08T00:35:18.685Z,26.00
2018-08-08T00:37:47.462Z,25.80
2018-08-08T00:40:16.468Z,25.70
2018-08-08T00:42:47.653Z,25.70
2018-08-08T00:45:17.801Z,25.70
2018-08-08T00:47:47.463Z,25.70
2018-08-08T00:50:16.916Z,25.70
2018-08-08T00:52:45.895Z,25.70
2018-08-08T00:55:14.700Z,25.70
2018-08-08T00:57:44.310Z,25.60
2018-08-08T01:00:15.136Z,24.80
2018-08-08T01:02:44.294Z,24.30
2018-08-08T01:05:14.268Z,24.30
2018-08-08T01:07:44.077Z,24.00
2018-08-08T01:10:13.217Z,24.10
2018-08-08T01:14:01.223Z,24.20
2018-08-08T01:16:29.972Z,24.60
2018-08-08T01:18:58.707Z,24.80
2018-08-08T01:21:27.498Z,24.60
2018-08-08T01:23:56.414Z,24.30
2018-08-08T01:26:25.243Z,24.20
2018-08-08T01:28:54.093Z,24.20
2018-08-08T01:31:22.928Z,24.00
2018-08-08T01:33:51.751Z,23.80
2018-08-08T01:36:20.661Z,23.90
2018-08-08T01:38:49.424Z,23.80
2018-08-08T01:41:18.217Z,23.80
2018-08-08T01:43:46.984Z,23.70
2018-08-08T01:46:15.807Z,23.60
2018-08-08T01:48:44.609Z,23.50
2018-08-08T01:51:13.436Z,23.40
2018-08-08T01:53:42.214Z,23.20
2018-08-08T01:56:10.960Z,23.20
2018-08-08T01:58:39.721Z,23.20
2018-08-08T02:01:08.626Z,23.20
2018-08-08T02:03:37.400Z,23.10
2018-08-08T02:06:06.466Z,23.20
2018-08-08T02:08:35.262Z,23.40
2018-08-08T02:11:04.194Z,23.50
2018-08-08T02:13:33.064Z,23.40
2018-08-08T02:16:01.828Z,23.30
2018-08-08T02:18:30.586Z,23.20
2018-08-08T02:20:59.413Z,23.30
2018-08-08T02:23:28.184Z,23.20
2018-08-08T02:25:56.953Z,23.20
2018-08-08T02:28:25.759Z,23.30
2018-08-08T02:30:54.568Z,23.40
2018-08-08T02:33:23.389Z,23.60
2018-08-08T02:35:52.213Z,23.70
2018-08-08T02:38:21.009Z,23.70
2018-08-08T02:40:49.740Z,23.60
2018-08-08T02:43:18.591Z,23.40
2018-08-08T02:45:47.357Z,23.20
2018-08-08T02:48:16.170Z,23.00
2018-08-08T02:50:45.002Z,23.00
2018-08-08T02:53:13.856Z,23.00
2018-08-08T02:55:42.616Z,22.90
2018-08-08T02:58:11.355Z,22.80
2018-08-08T03:00:40.136Z,22.70
2018-08-08T03:03:08.955Z,22.80
2018-08-08T03:05:38.040Z,23.10
2018-08-08T03:08:06.885Z,23.50
2018-08-08T03:10:35.704Z,23.70
2018-08-08T03:13:04.726Z,24.00
2018-08-08T03:15:33.645Z,24.10
2018-08-08T03:18:02.440Z,24.20
2018-08-08T03:20:31.208Z,24.10
2018-08-08T03:22:59.959Z,24.10
2018-08-08T03:25:28.720Z,24.10
2018-08-08T03:27:58.561Z,24.10
2018-08-08T03:30:27.505Z,24.10
2018-08-08T03:32:56.321Z,24.10
2018-08-08T03:35:25.141Z,24.20
2018-08-08T03:37:53.922Z,24.10
2018-08-08T03:40:22.788Z,24.10
2018-08-08T03:42:51.568Z,24.10
2018-08-08T03:45:20.368Z,24.10
2018-08-08T03:47:49.325Z,24.00
2018-08-08T03:50:18.112Z,24.00
2018-08-08T03:52:46.916Z,23.90
2018-08-08T03:55:15.723Z,24.00
2018-08-08T03:57:44.605Z,24.00
2018-08-08T04:00:17.389Z,24.00
2018-08-08T04:02:46.650Z,24.10
2018-08-08T04:05:16.702Z,24.20
2018-08-08T04:07:45.732Z,24.30
2018-08-08T04:10:16.124Z,24.40
2018-08-08T04:12:44.892Z,24.50
2018-08-08T04:15:16.020Z,24.50
2018-08-08T04:17:44.825Z,24.50
2018-08-08T04:20:13.667Z,24.50
2018-08-08T04:22:42.775Z,24.50
2018-08-08T04:25:13.033Z,24.60
2018-08-08T04:27:43.149Z,24.60
2018-08-08T04:30:17.026Z,24.60
2018-08-08T04:32:45.870Z,24.80
2018-08-08T04:36:34.036Z,24.70
2018-08-08T04:39:02.905Z,24.40
2018-08-08T04:41:31.777Z,24.30
2018-08-08T04:44:00.530Z,24.30
2018-08-08T04:46:29.344Z,24.20
2018-08-08T04:48:58.149Z,24.00
2018-08-08T04:51:27.353Z,24.10
2018-08-08T04:53:56.091Z,24.10
2018-08-08T04:56:24.906Z,24.20
2018-08-08T04:58:53.964Z,24.00
2018-08-08T05:01:22.865Z,24.00
2018-08-08T05:03:52.165Z,24.00
2018-08-08T05:06:20.981Z,24.00
2018-08-08T05:08:49.748Z,24.00
2018-08-08T05:11:19.521Z,24.00
2018-08-08T05:13:48.264Z,24.00
2018-08-08T05:16:17.389Z,24.10
2018-08-08T05:18:46.172Z,24.20
2018-08-08T05:21:14.935Z,24.30
2018-08-08T05:23:44.611Z,24.30
2018-08-08T05:26:13.630Z,24.50
2018-08-08T05:28:43.204Z,24.50
2018-08-08T05:31:11.977Z,24.60
2018-08-08T05:33:40.828Z,24.70
2018-08-08T05:36:09.751Z,24.80
2018-08-08T05:38:39.200Z,24.90
2018-08-08T05:41:08.261Z,25.00
2018-08-08T05:43:38.684Z,25.10
2018-08-08T05:53:05.552Z,25.10
2018-08-08T05:55:40.965Z,25.10
2018-08-08T05:58:11.171Z,25.20
2018-08-08T06:00:41.091Z,25.10
2018-08-08T06:03:10.358Z,25.10
2018-08-08T06:05:44.068Z,25.10
2018-08-08T06:08:16.945Z,25.10
2018-08-08T06:10:46.863Z,25.10
2018-08-08T06:13:15.934Z,25.00
2018-08-08T06:15:44.805Z,24.70
2018-08-08T06:18:14.417Z,24.50
2018-08-08T06:20:43.318Z,24.30
2018-08-08T06:23:14.203Z,24.30
2018-08-08T06:25:43.113Z,24.20
2018-08-08T06:28:14.203Z,24.20
2018-08-08T06:30:44.359Z,24.10
2018-08-08T06:33:16.231Z,24.10
2018-08-08T06:35:46.180Z,24.10
2018-08-08T06:38:15.259Z,24.20
2018-08-08T06:40:44.675Z,24.20
2018-08-08T06:43:14.299Z,24.40
2018-08-08T06:45:44.214Z,24.40
2018-08-08T06:48:15.120Z,24.60
2018-08-08T06:50:44.662Z,24.70
2018-08-08T06:53:21.017Z,24.80
2018-08-08T06:55:50.076Z,24.90
2018-08-08T06:58:19.451Z,24.90
2018-08-08T07:00:48.454Z,25.00
2018-08-08T07:03:18.300Z,25.00
2018-08-08T07:05:48.250Z,25.10
2018-08-08T07:08:17.657Z,25.10
2018-08-08T07:10:46.453Z,25.30
2018-08-08T07:13:16.648Z,25.30
2018-08-08T07:15:46.632Z,25.20
2018-08-08T07:18:15.729Z,25.10
2018-08-08T07:20:48.780Z,25.00
2018-08-08T07:23:18.179Z,25.00
2018-08-08T07:25:47.691Z,25.10
2018-08-08T07:28:16.561Z,25.20
2018-08-08T07:30:45.437Z,25.20
2018-08-08T07:33:14.243Z,25.30
2018-08-08T07:35:44.698Z,25.40
2018-08-08T07:38:13.736Z,25.40
2018-08-08T07:40:42.769Z,25.60
2018-08-08T07:43:12.248Z,26.10
2018-08-08T07:45:41.987Z,27.00
2018-08-08T07:48:11.068Z,28.10
2018-08-08T07:50:40.067Z,29.70
2018-08-08T07:53:08.859Z,30.90
2018-08-08T07:55:38.495Z,31.70
2018-08-08T07:58:07.442Z,31.50
2018-08-08T08:00:36.164Z,31.50
2018-08-08T08:03:05.376Z,31.60
2018-08-08T08:05:34.187Z,31.80
2018-08-08T08:08:04.912Z,32.30
2018-08-08T08:10:33.772Z,32.50
2018-08-08T08:13:04.077Z,32.30
2018-08-08T08:15:33.456Z,31.40
2018-08-08T08:18:04.256Z,30.60
2018-08-08T08:20:34.706Z,30.60
2018-08-08T08:23:03.611Z,30.90
2018-08-08T08:25:36.506Z,30.60
2018-08-08T08:28:06.301Z,30.00
2018-08-08T08:30:35.226Z,28.70
2018-08-08T08:33:04.251Z,28.30
2018-08-08T08:35:33.254Z,28.70
2018-08-08T08:38:03.158Z,29.20
2018-08-08T08:40:33.366Z,30.00
2018-08-08T08:43:02.370Z,31.00
2018-08-08T08:45:33.359Z,31.30
2018-08-08T08:48:02.273Z,30.70
2018-08-08T08:50:35.229Z,30.90
2018-08-08T08:53:04.433Z,30.60
2018-08-08T08:55:34.231Z,30.40
2018-08-08T08:58:04.062Z,31.10
2018-08-08T09:00:36.628Z,31.10
2018-08-08T09:03:09.280Z,31.60
2018-08-08T09:05:38.237Z,32.40
2018-08-08T09:08:07.130Z,32.00
2018-08-08T09:10:36.547Z,31.50
2018-08-08T09:13:07.564Z,31.10
2018-08-08T09:15:40.444Z,31.60
2018-08-08T09:18:10.276Z,32.40
2018-08-08T09:20:39.481Z,33.90
2018-08-08T09:23:09.246Z,35.10
2018-08-08T09:25:38.662Z,35.80
2018-08-08T09:28:09.752Z,34.60
2018-08-08T09:30:39.017Z,34.40
2018-08-08T09:33:13.335Z,34.60
2018-08-08T09:35:42.306Z,35.20
2018-08-08T09:38:13.885Z,35.20
2018-08-08T09:40:43.534Z,35.30
2018-08-08T09:43:17.688Z,36.20
2018-08-08T09:45:46.470Z,36.40
2018-08-08T09:49:37.609Z,35.80
2018-08-08T09:52:12.530Z,36.20
2018-08-08T09:54:42.443Z,35.30
2018-08-08T09:57:12.745Z,35.80
2018-08-08T09:59:42.340Z,36.00
2018-08-08T10:02:16.626Z,36.60
2018-08-08T10:04:46.450Z,36.90
2018-08-08T10:07:18.145Z,36.80
2018-08-08T10:09:48.170Z,36.60
2018-08-08T10:12:19.360Z,36.80
2018-08-08T10:14:48.231Z,37.40
2018-08-08T10:17:23.427Z,38.50
2018-08-08T10:19:52.260Z,38.80
2018-08-08T10:22:26.674Z,38.20
2018-08-08T10:24:56.637Z,38.30
2018-08-08T10:27:27.751Z,38.00
2018-08-08T10:29:56.689Z,38.10
2018-08-08T10:32:30.584Z,37.10
2018-08-08T10:34:59.527Z,36.80
2018-08-08T10:37:35.787Z,36.90
2018-08-08T10:40:06.232Z,36.70
2018-08-08T10:42:36.266Z,36.60
2018-08-08T10:45:05.626Z,36.80
2018-08-08T10:47:35.395Z,36.10
2018-08-08T10:50:06.793Z,36.30
2018-08-08T10:52:37.254Z,36.40
2018-08-08T10:55:07.967Z,36.60
2018-08-08T10:57:37.551Z,37.10
2018-08-08T11:00:09.191Z,37.40
2018-08-08T11:03:02.659Z,37.00
2018-08-08T11:05:32.630Z,36.80
2018-08-08T11:08:10.233Z,36.20
2018-08-08T11:10:41.638Z,35.70
2018-08-08T11:13:11.282Z,36.20
2018-08-08T11:15:42.912Z,35.60
2018-08-08T11:18:12.175Z,35.50
2018-08-08T11:20:47.835Z,35.60
2018-08-08T11:23:19.118Z,35.80
2018-08-08T11:25:52.523Z,35.50
2018-08-08T11:28:22.204Z,35.20
2018-08-08T11:30:52.411Z,35.80
2018-08-08T11:33:27.416Z,35.20
2018-08-08T11:35:59.969Z,35.40
2018-08-08T11:38:29.736Z,35.70
2018-08-08T11:41:02.141Z,35.50
2018-08-08T11:43:32.345Z,35.60
2018-08-08T11:46:01.576Z,34.80
2018-08-08T11:48:30.940Z,34.80
2018-08-08T11:51:05.743Z,34.20
2018-08-08T11:53:37.673Z,33.80
2018-08-08T11:56:09.442Z,33.80
2018-08-08T11:58:38.505Z,33.70
2018-08-08T12:01:09.163Z,33.70
2018-08-08T12:03:38.244Z,34.10
2018-08-08T12:08:45.426Z,34.80
2018-08-08T12:11:18.547Z,35.00
2018-08-08T12:13:47.508Z,34.50
2018-08-08T12:16:16.884Z,33.80
2018-08-08T12:18:47.713Z,33.00
2018-08-08T12:21:18.505Z,32.40
2018-08-08T12:23:47.506Z,32.00
2018-08-08T12:26:21.433Z,31.30
2018-08-08T12:28:57.231Z,31.30
2018-08-08T12:31:33.548Z,31.60
2018-08-08T12:34:02.438Z,31.70
2018-08-08T12:36:37.269Z,31.50
2018-08-08T12:39:12.328Z,31.60
2018-08-08T12:41:41.144Z,31.20
2018-08-08T12:44:10.230Z,31.10
2018-08-08T12:47:58.229Z,31.50
2018-08-08T12:50:29.252Z,31.80
2018-08-08T12:53:05.154Z,32.20
2018-08-08T12:55:34.565Z,32.60
2018-08-08T12:58:03.406Z,32.50
2018-08-08T13:00:33.346Z,32.70
2018-08-08T13:03:02.161Z,33.20
2018-08-08T13:05:32.711Z,33.40
2018-08-08T13:08:03.337Z,33.00
2018-08-08T13:10:35.321Z,32.60
2018-08-08T13:13:04.163Z,32.30
2018-08-08T13:15:37.856Z,32.50
2018-08-08T13:18:07.597Z,32.40
2018-08-08T13:20:37.440Z,32.60
2018-08-08T13:23:06.969Z,32.50
2018-08-08T13:25:36.412Z,32.40
2018-08-08T13:28:07.526Z,32.20
2018-08-08T13:30:37.551Z,32.20
2018-08-08T13:33:07.032Z,32.60
2018-08-08T13:35:35.856Z,32.70
2018-08-08T13:38:07.977Z,32.80
2018-08-08T13:40:37.705Z,32.80
2018-08-08T13:43:07.400Z,32.60
2018-08-08T13:45:37.500Z,32.20
2018-08-08T13:48:07.249Z,32.60
2018-08-08T13:50:39.497Z,32.90
2018-08-08T13:53:10.102Z,32.70
2018-08-08T13:55:39.414Z,31.90
2018-08-08T13:58:10.292Z,31.90
2018-08-08T14:00:40.656Z,32.20
2018-08-08T14:03:11.421Z,32.30
2018-08-08T14:05:43.152Z,32.40
2018-08-08T14:08:23.564Z,32.40
2018-08-08T14:10:53.021Z,32.10
2018-08-08T14:13:21.921Z,32.00
2018-08-08T14:15:51.018Z,31.90
2018-08-08T14:18:20.626Z,31.60
2018-08-08T14:20:50.806Z,31.70
2018-08-08T14:23:20.630Z,31.00
2018-08-08T14:25:50.809Z,30.60
2018-08-08T14:28:26.904Z,30.30
2018-08-08T14:30:56.925Z,30.30
2018-08-08T14:33:25.763Z,30.50
2018-08-08T14:35:57.495Z,30.60
2018-08-08T14:38:28.217Z,30.50
2018-08-08T14:40:57.314Z,30.60
2018-08-08T14:43:27.521Z,30.90
2018-08-08T14:45:57.406Z,31.00
2018-08-08T14:48:27.083Z,31.00
2018-08-08T14:51:16.613Z,31.00
2018-08-08T14:53:47.589Z,30.90
2018-08-08T14:56:21.824Z,30.80
2018-08-08T14:58:52.376Z,30.90
2018-08-08T15:01:24.498Z,30.90
2018-08-08T15:03:54.408Z,31.00
2018-08-08T15:06:24.546Z,31.20
2018-08-08T15:08:53.393Z,30.90
2018-08-08T15:11:23.793Z,30.30
2018-08-08T15:13:53.163Z,30.30
2018-08-08T15:16:22.240Z,30.20
2018-08-08T15:18:51.816Z,30.10
2018-08-08T15:21:25.211Z,30.00
2018-08-08T15:23:55.198Z,30.00
2018-08-08T15:26:25.360Z,29.90
2018-08-08T15:28:54.852Z,29.90
2018-08-08T15:31:25.137Z,29.90
2018-08-08T15:33:54.568Z,29.80
2018-08-08T15:36:23.582Z,29.60
2018-08-08T15:38:56.229Z,29.60
2018-08-08T15:41:27.462Z,29.50
2018-08-08T15:44:02.417Z,29.50
2018-08-08T15:46:31.617Z,29.30
2018-08-08T15:49:04.279Z,29.40
2018-08-08T15:51:33.776Z,29.40
2018-08-08T15:54:04.291Z,29.50
2018-08-08T15:56:33.155Z,29.50
2018-08-08T15:59:02.812Z,29.60
2018-08-08T16:01:33.012Z,29.70
2018-08-08T16:05:21.791Z,29.50
2018-08-08T16:07:51.917Z,29.70
2018-08-08T16:10:23.440Z,29.70
2018-08-08T16:12:52.326Z,29.80
2018-08-08T16:15:22.295Z,29.90
2018-08-08T16:17:51.332Z,29.90
2018-08-08T16:20:20.327Z,30.00
2018-08-08T16:22:50.920Z,30.10
2018-08-08T16:25:19.987Z,30.20
2018-08-08T16:27:49.489Z,30.40
2018-08-08T16:30:19.436Z,30.40
2018-08-08T16:32:50.361Z,30.50
2018-08-08T16:35:19.197Z,30.50
2018-08-08T16:37:48.539Z,30.40
2018-08-08T16:40:19.277Z,30.30
2018-08-08T16:42:50.944Z,30.30
2018-08-08T16:45:20.797Z,30.10
2018-08-08T16:47:51.249Z,30.00
2018-08-08T16:50:20.658Z,29.70
2018-08-08T16:52:50.646Z,29.60
2018-08-08T16:55:19.684Z,29.70
2018-08-08T16:57:49.351Z,29.70
2018-08-08T17:00:19.683Z,29.70
2018-08-08T17:02:53.012Z,29.70
2018-08-08T17:05:27.310Z,29.60
2018-08-08T17:07:58.487Z,29.50
2018-08-08T17:10:28.665Z,29.40
2018-08-08T17:12:58.502Z,29.20
2018-08-08T17:15:29.644Z,29.00
2018-08-08T17:18:00.644Z,28.80
2018-08-08T17:20:30.703Z,28.70
2018-08-08T17:23:00.166Z,28.70
2018-08-08T17:25:30.233Z,28.40
2018-08-08T17:28:01.079Z,28.30
2018-08-08T17:30:30.849Z,28.30
2018-08-08T17:33:01.116Z,28.20
2018-08-08T17:35:32.573Z,28.20
2018-08-08T17:38:05.312Z,28.10
2018-08-08T17:40:38.318Z,28.00
2018-08-08T17:43:08.898Z,27.90
2018-08-08T17:45:42.202Z,27.90
2018-08-08T17:48:11.187Z,27.80
2018-08-08T17:50:41.710Z,27.80
2018-08-08T17:53:11.291Z,27.70
2018-08-08T17:55:40.314Z,27.60
2018-08-08T17:58:09.931Z,27.60
2018-08-08T18:00:40.083Z,27.40
2018-08-08T18:03:08.883Z,27.30
2018-08-08T18:05:38.692Z,27.20
2018-08-08T18:09:28.247Z,27.20
2018-08-08T18:11:57.120Z,27.10
2018-08-08T18:14:26.456Z,27.00
2018-08-08T18:16:56.865Z,27.00
2018-08-08T18:19:27.831Z,26.90
2018-08-08T18:21:56.745Z,26.80
2018-08-08T18:24:27.313Z,26.80
2018-08-08T18:26:57.376Z,26.80
2018-08-08T18:29:28.172Z,26.70
2018-08-08T18:31:58.769Z,26.50
2018-08-08T18:34:29.114Z,26.50
2018-08-08T18:37:00.515Z,26.50
2018-08-08T18:39:39.276Z,26.50
2018-08-08T18:42:10.798Z,26.50
2018-08-08T18:44:41.619Z,26.50
2018-08-08T18:47:13.162Z,26.50
2018-08-08T18:52:21.248Z,26.40
2018-08-08T18:54:51.240Z,26.30
2018-08-08T18:57:20.629Z,26.20
2018-08-08T19:00:02.672Z,26.20
2018-08-08T19:02:33.234Z,26.10
2018-08-08T19:05:03.556Z,26.10
2018-08-08T19:07:33.395Z,26.10
2018-08-08T19:10:02.402Z,26.00
2018-08-08T19:12:33.336Z,26.00
2018-08-08T19:15:04.672Z,25.90
2018-08-08T19:17:35.304Z,25.80
2018-08-08T19:20:06.282Z,25.70
2018-08-08T19:22:35.193Z,25.70
2018-08-08T19:25:04.352Z,25.70
2018-08-08T19:27:33.893Z,25.70
2018-08-08T19:30:04.380Z,25.60
2018-08-08T19:32:33.740Z,25.50
2018-08-08T19:35:03.164Z,25.40
2018-08-08T19:37:32.546Z,25.40
2018-08-08T19:40:04.159Z,25.40
2018-08-08T19:42:34.830Z,25.30
2018-08-08T19:45:03.724Z,25.30
2018-08-08T19:47:34.636Z,25.20
2018-08-08T19:50:03.867Z,25.10
2018-08-08T19:52:33.115Z,25.00
2018-08-08T19:55:02.458Z,25.10
2018-08-08T19:57:32.734Z,25.00
2018-08-08T20:00:02.203Z,24.90
2018-08-08T20:02:33.246Z,24.80
2018-08-08T20:07:08.917Z,24.70
2018-08-08T20:09:41.504Z,24.70
2018-08-08T20:12:10.250Z,24.70
2018-08-08T20:14:42.422Z,24.60
2018-08-08T20:17:12.236Z,24.50
2018-08-08T20:19:44.536Z,24.50
2018-08-08T20:22:16.678Z,24.50
2018-08-08T20:27:29.392Z,24.40
2018-08-08T20:29:58.212Z,24.30
2018-08-08T20:32:27.897Z,24.30
2018-08-08T20:34:59.533Z,24.20
2018-08-08T20:37:32.137Z,24.20
2018-08-08T20:40:01.734Z,24.20
2018-08-08T20:42:33.109Z,24.20
2018-08-08T20:45:04.231Z,24.10
2018-08-08T20:47:33.076Z,24.10
2018-08-08T20:50:03.376Z,24.00
2018-08-08T20:52:32.098Z,23.80
2018-08-08T20:55:03.598Z,23.80
2018-08-08T20:57:34.242Z,23.50
2018-08-08T21:00:07.048Z,23.30
2018-08-08T21:02:38.256Z,23.30
2018-08-08T21:05:08.179Z,23.40
2018-08-08T21:07:39.761Z,23.40
2018-08-08T21:10:08.813Z,23.30
2018-08-08T21:12:39.924Z,23.30
2018-08-08T21:15:09.916Z,23.30
2018-08-08T21:17:40.803Z,23.30
2018-08-08T21:20:15.251Z,23.30
2018-08-08T21:22:44.841Z,23.20
2018-08-08T21:25:13.644Z,23.10
2018-08-08T21:34:44.391Z,22.80
2018-08-08T21:37:22.456Z,22.40
2018-08-08T21:40:01.699Z,22.20
2018-08-08T21:42:31.950Z,22.10
2018-08-08T21:45:01.745Z,22.10
2018-08-08T21:47:32.194Z,22.10
2018-08-08T21:51:20.376Z,22.00
2018-08-08T21:54:00.252Z,22.00
2018-08-08T21:56:40.922Z,22.00
2018-08-08T21:59:20.761Z,21.80
2018-08-08T22:02:01.274Z,21.70
2018-08-08T22:04:41.250Z,21.70
2018-08-08T22:07:22.029Z,21.50
2018-08-08T22:10:01.776Z,21.50
2018-08-08T22:12:45.630Z,21.60
2018-08-08T22:15:25.632Z,21.60
2018-08-08T22:18:06.370Z,21.40
2018-08-08T22:20:36.694Z,21.20
2018-08-08T22:23:07.679Z,21.00
2018-08-08T22:25:36.541Z,20.90
2018-08-08T22:28:10.164Z,21.00
2018-08-08T22:30:39.788Z,21.00
2018-08-08T22:33:08.592Z,21.10
2018-08-08T22:35:39.313Z,21.10
2018-08-08T22:38:08.350Z,21.00
2018-08-08T22:40:37.329Z,21.00
2018-08-08T22:43:06.142Z,21.00
2018-08-08T22:45:36.177Z,20.80
2018-08-08T22:48:06.271Z,20.70
2018-08-08T22:50:37.254Z,20.60
2018-08-08T22:53:06.025Z,20.60
2018-08-08T22:55:35.730Z,20.50
2018-08-08T22:58:05.143Z,20.50
2018-08-08T23:00:35.260Z,20.60
2018-08-08T23:03:05.347Z,20.50
2018-08-08T23:05:36.316Z,20.50
2018-08-08T23:08:11.268Z,20.40
2018-08-08T23:10:40.076Z,20.40
2018-08-08T23:13:09.773Z,20.20
2018-08-08T23:15:38.576Z,20.30
2018-08-08T23:18:07.493Z,20.20
2018-08-08T23:20:37.994Z,20.10
2018-08-08T23:23:06.864Z,20.10
2018-08-08T23:25:36.286Z,20.10
2018-08-08T23:28:08.907Z,20.10
2018-08-08T23:30:38.052Z,20.10
2018-08-08T23:33:07.037Z,20.00
2018-08-08T23:35:35.777Z,20.00
2018-08-08T23:38:04.605Z,20.00
2018-08-08T23:40:34.337Z,20.00
2018-08-08T23:43:03.164Z,20.00
2018-08-08T23:45:32.939Z,20.00
2018-08-08T23:48:01.725Z,20.00
2018-08-08T23:50:31.025Z,20.00
2018-08-08T23:53:00.472Z,20.00
2018-08-08T23:55:29.246Z,20.00
2018-08-08T23:57:58.044Z,20.00
